sensor_id;sensor_type;location;lat;lon;timestamp;temperature;humidity
55083;DHT22;40978;52.850;6.506;2023-03-04T00:01:47;5.90;99.90
55083;DHT22;40978;52.850;6.506;2023-03-04T00:04:12;5.80;99.90
55083;DHT22;40978;52.850;6.506;2023-03-04T00:06:38;5.90;99.90
55083;DHT22;40978;52.850;6.506;2023-03-04T00:09:04;5.80;99.90
55083;DHT22;40978;52.850;6.506;2023-03-04T00:11:31;5.80;99.90
55083;DHT22;40978;52.850;6.506;2023-03-04T00:13:57;5.80;99.90
55083;DHT22;40978;52.850;6.506;2023-03-04T00:16:23;5.80;99.90
55083;DHT22;40978;52.850;6.506;2023-03-04T00:18:56;5.80;99.90
55083;DHT22;40978;52.850;6.506;2023-03-04T00:21:22;5.80;99.90
55083;DHT22;40978;52.850;6.506;2023-03-04T00:23:48;5.80;99.90
55083;DHT22;40978;52.850;6.506;2023-03-04T00:26:15;5.80;99.90
55083;DHT22;40978;52.850;6.506;2023-03-04T00:28:41;5.80;99.90
55083;DHT22;40978;52.850;6.506;2023-03-04T00:31:07;5.90;99.90
55083;DHT22;40978;52.850;6.506;2023-03-04T00:33:33;5.80;99.90
55083;DHT22;40978;52.850;6.506;2023-03-04T00:36:00;5.80;99.90
55083;DHT22;40978;52.850;6.506;2023-03-04T00:38:26;5.80;99.90
55083;DHT22;40978;52.850;6.506;2023-03-04T00:40:52;5.80;99.90
55083;DHT22;40978;52.850;6.506;2023-03-04T00:43:17;5.80;99.90
55083;DHT22;40978;52.850;6.506;2023-03-04T00:45:43;5.80;99.90
55083;DHT22;40978;52.850;6.506;2023-03-04T00:48:09;5.80;99.90
55083;DHT22;40978;52.850;6.506;2023-03-04T00:50:36;5.80;99.90
55083;DHT22;40978;52.850;6.506;2023-03-04T00:53:02;5.80;99.90
55083;DHT22;40978;52.850;6.506;2023-03-04T00:55:28;5.80;99.90
55083;DHT22;40978;52.850;6.506;2023-03-04T00:57:54;5.80;99.90
55083;DHT22;40978;52.850;6.506;2023-03-04T01:00:20;5.80;99.90
55083;DHT22;40978;52.850;6.506;2023-03-04T01:02:46;5.80;99.90
55083;DHT22;40978;52.850;6.506;2023-03-04T01:05:11;5.80;99.90
55083;DHT22;40978;52.850;6.506;2023-03-04T01:07:37;5.80;99.90
55083;DHT22;40978;52.850;6.506;2023-03-04T01:10:04;5.80;99.90
55083;DHT22;40978;52.850;6.506;2023-03-04T01:12:30;5.80;99.90
55083;DHT22;40978;52.850;6.506;2023-03-04T01:14:56;5.80;99.90
55083;DHT22;40978;52.850;6.506;2023-03-04T01:17:22;5.70;99.90
55083;DHT22;40978;52.850;6.506;2023-03-04T01:19:47;5.80;99.90
55083;DHT22;40978;52.850;6.506;2023-03-04T01:22:13;5.80;99.90
55083;DHT22;40978;52.850;6.506;2023-03-04T01:24:41;5.80;99.90
55083;DHT22;40978;52.850;6.506;2023-03-04T01:27:07;5.70;99.90
55083;DHT22;40978;52.850;6.506;2023-03-04T01:29:32;5.80;99.90
55083;DHT22;40978;52.850;6.506;2023-03-04T01:31:58;5.80;99.90
55083;DHT22;40978;52.850;6.506;2023-03-04T01:34:24;5.80;99.90
55083;DHT22;40978;52.850;6.506;2023-03-04T01:36:50;5.80;99.90
55083;DHT22;40978;52.850;6.506;2023-03-04T01:39:15;5.70;99.90
55083;DHT22;40978;52.850;6.506;2023-03-04T01:41:42;5.80;99.90
55083;DHT22;40978;52.850;6.506;2023-03-04T01:44:08;5.70;99.90
55083;DHT22;40978;52.850;6.506;2023-03-04T01:46:36;5.70;99.90
55083;DHT22;40978;52.850;6.506;2023-03-04T01:49:02;5.70;99.90
55083;DHT22;40978;52.850;6.506;2023-03-04T01:51:28;5.70;99.90
55083;DHT22;40978;52.850;6.506;2023-03-04T01:53:55;5.80;99.90
55083;DHT22;40978;52.850;6.506;2023-03-04T01:56:30;5.80;99.90
55083;DHT22;40978;52.850;6.506;2023-03-04T02:01:37;5.80;99.90
55083;DHT22;40978;52.850;6.506;2023-03-04T02:04:04;5.80;99.90
55083;DHT22;40978;52.850;6.506;2023-03-04T02:06:30;5.80;99.90
55083;DHT22;40978;52.850;6.506;2023-03-04T02:08:57;5.70;99.90
55083;DHT22;40978;52.850;6.506;2023-03-04T02:11:23;5.70;99.90
55083;DHT22;40978;52.850;6.506;2023-03-04T02:13:49;5.80;99.90
55083;DHT22;40978;52.850;6.506;2023-03-04T02:16:14;5.70;99.90
55083;DHT22;40978;52.850;6.506;2023-03-04T02:18:40;5.70;99.90
55083;DHT22;40978;52.850;6.506;2023-03-04T02:24:01;5.70;99.90
55083;DHT22;40978;52.850;6.506;2023-03-04T02:26:29;5.70;99.90
55083;DHT22;40978;52.850;6.506;2023-03-04T02:28:57;5.70;99.90
55083;DHT22;40978;52.850;6.506;2023-03-04T02:31:30;5.70;99.90
55083;DHT22;40978;52.850;6.506;2023-03-04T02:33:58;5.70;99.90
55083;DHT22;40978;52.850;6.506;2023-03-04T02:36:24;5.70;99.90
55083;DHT22;40978;52.850;6.506;2023-03-04T02:38:52;5.70;99.90
55083;DHT22;40978;52.850;6.506;2023-03-04T02:41:22;5.80;99.90
55083;DHT22;40978;52.850;6.506;2023-03-04T02:43:51;5.70;99.90
55083;DHT22;40978;52.850;6.506;2023-03-04T02:46:17;5.70;99.90
55083;DHT22;40978;52.850;6.506;2023-03-04T02:48:43;5.70;99.90
55083;DHT22;40978;52.850;6.506;2023-03-04T02:51:09;5.70;99.90
55083;DHT22;40978;52.850;6.506;2023-03-04T02:53:35;5.70;99.90
55083;DHT22;40978;52.850;6.506;2023-03-04T02:56:01;5.70;99.90
55083;DHT22;40978;52.850;6.506;2023-03-04T02:58:26;5.70;99.90
55083;DHT22;40978;52.850;6.506;2023-03-04T03:00:52;5.60;99.90
55083;DHT22;40978;52.850;6.506;2023-03-04T03:03:18;5.60;99.90
55083;DHT22;40978;52.850;6.506;2023-03-04T03:05:44;5.60;99.90
55083;DHT22;40978;52.850;6.506;2023-03-04T03:08:10;5.60;99.90
55083;DHT22;40978;52.850;6.506;2023-03-04T03:10:35;5.60;99.90
55083;DHT22;40978;52.850;6.506;2023-03-04T03:13:01;5.60;99.90
55083;DHT22;40978;52.850;6.506;2023-03-04T03:15:27;5.60;99.90
55083;DHT22;40978;52.850;6.506;2023-03-04T03:17:53;5.60;99.90
55083;DHT22;40978;52.850;6.506;2023-03-04T03:20:19;5.60;99.90
55083;DHT22;40978;52.850;6.506;2023-03-04T03:22:45;5.60;99.90
55083;DHT22;40978;52.850;6.506;2023-03-04T03:25:12;5.60;99.90
55083;DHT22;40978;52.850;6.506;2023-03-04T03:27:39;5.50;99.90
55083;DHT22;40978;52.850;6.506;2023-03-04T03:30:05;5.50;99.90
55083;DHT22;40978;52.850;6.506;2023-03-04T03:32:31;5.50;99.90
55083;DHT22;40978;52.850;6.506;2023-03-04T03:34:57;5.50;99.90
55083;DHT22;40978;52.850;6.506;2023-03-04T03:37:23;5.50;99.90
55083;DHT22;40978;52.850;6.506;2023-03-04T03:39:49;5.50;99.90
55083;DHT22;40978;52.850;6.506;2023-03-04T03:42:14;5.50;99.90
55083;DHT22;40978;52.850;6.506;2023-03-04T03:44:40;5.50;99.90
55083;DHT22;40978;52.850;6.506;2023-03-04T03:47:06;5.50;99.90
55083;DHT22;40978;52.850;6.506;2023-03-04T03:49:31;5.50;99.90
55083;DHT22;40978;52.850;6.506;2023-03-04T03:51:57;5.40;99.90
55083;DHT22;40978;52.850;6.506;2023-03-04T03:54:23;5.50;99.90
55083;DHT22;40978;52.850;6.506;2023-03-04T03:56:49;5.50;99.90
55083;DHT22;40978;52.850;6.506;2023-03-04T03:59:14;5.40;99.90
55083;DHT22;40978;52.850;6.506;2023-03-04T04:01:40;5.50;99.90
55083;DHT22;40978;52.850;6.506;2023-03-04T04:04:06;5.50;99.90
55083;DHT22;40978;52.850;6.506;2023-03-04T04:06:32;5.40;99.90
55083;DHT22;40978;52.850;6.506;2023-03-04T04:08:57;5.50;99.90
55083;DHT22;40978;52.850;6.506;2023-03-04T04:11:23;5.50;99.90
55083;DHT22;40978;52.850;6.506;2023-03-04T04:13:49;5.50;99.90
55083;DHT22;40978;52.850;6.506;2023-03-04T04:16:14;5.50;99.90
55083;DHT22;40978;52.850;6.506;2023-03-04T04:18:40;5.50;99.90
55083;DHT22;40978;52.850;6.506;2023-03-04T04:21:06;5.50;99.90
55083;DHT22;40978;52.850;6.506;2023-03-04T04:23:32;5.50;99.90
55083;DHT22;40978;52.850;6.506;2023-03-04T04:25:57;5.50;99.90
55083;DHT22;40978;52.850;6.506;2023-03-04T04:28:23;5.50;99.90
55083;DHT22;40978;52.850;6.506;2023-03-04T04:30:49;5.50;99.90
55083;DHT22;40978;52.850;6.506;2023-03-04T04:33:15;5.40;99.90
55083;DHT22;40978;52.850;6.506;2023-03-04T04:35:41;5.50;99.90
55083;DHT22;40978;52.850;6.506;2023-03-04T04:38:08;5.40;99.90
55083;DHT22;40978;52.850;6.506;2023-03-04T04:40:34;5.40;99.90
55083;DHT22;40978;52.850;6.506;2023-03-04T04:43:00;5.40;99.90
55083;DHT22;40978;52.850;6.506;2023-03-04T04:45:25;5.40;99.90
55083;DHT22;40978;52.850;6.506;2023-03-04T04:47:53;5.40;99.90
55083;DHT22;40978;52.850;6.506;2023-03-04T04:50:20;5.50;99.90
55083;DHT22;40978;52.850;6.506;2023-03-04T04:52:45;5.50;99.90
55083;DHT22;40978;52.850;6.506;2023-03-04T04:55:11;5.40;99.90
55083;DHT22;40978;52.850;6.506;2023-03-04T04:57:37;5.40;99.90
55083;DHT22;40978;52.850;6.506;2023-03-04T05:00:04;5.30;99.90
55083;DHT22;40978;52.850;6.506;2023-03-04T05:02:31;5.40;99.90
55083;DHT22;40978;52.850;6.506;2023-03-04T05:05:04;5.40;99.90
55083;DHT22;40978;52.850;6.506;2023-03-04T05:07:30;5.30;99.90
55083;DHT22;40978;52.850;6.506;2023-03-04T05:09:56;5.40;99.90
55083;DHT22;40978;52.850;6.506;2023-03-04T05:12:21;5.40;99.90
55083;DHT22;40978;52.850;6.506;2023-03-04T05:14:47;5.30;99.90
55083;DHT22;40978;52.850;6.506;2023-03-04T05:17:13;5.30;99.90
55083;DHT22;40978;52.850;6.506;2023-03-04T05:19:39;5.40;99.90
55083;DHT22;40978;52.850;6.506;2023-03-04T05:22:04;5.40;99.90
55083;DHT22;40978;52.850;6.506;2023-03-04T05:24:30;5.40;99.90
55083;DHT22;40978;52.850;6.506;2023-03-04T05:26:56;5.40;99.90
55083;DHT22;40978;52.850;6.506;2023-03-04T05:29:21;5.30;99.90
55083;DHT22;40978;52.850;6.506;2023-03-04T05:31:47;5.30;99.90
55083;DHT22;40978;52.850;6.506;2023-03-04T05:34:13;5.30;99.90
55083;DHT22;40978;52.850;6.506;2023-03-04T05:36:39;5.30;99.90
55083;DHT22;40978;52.850;6.506;2023-03-04T05:39:04;5.30;99.90
55083;DHT22;40978;52.850;6.506;2023-03-04T05:41:30;5.30;99.90
55083;DHT22;40978;52.850;6.506;2023-03-04T05:43:56;5.30;99.90
55083;DHT22;40978;52.850;6.506;2023-03-04T05:46:22;5.20;99.90
55083;DHT22;40978;52.850;6.506;2023-03-04T05:48:50;5.20;99.90
55083;DHT22;40978;52.850;6.506;2023-03-04T05:51:17;5.30;99.90
55083;DHT22;40978;52.850;6.506;2023-03-04T05:53:43;5.30;99.90
55083;DHT22;40978;52.850;6.506;2023-03-04T05:56:14;5.20;99.90
55083;DHT22;40978;52.850;6.506;2023-03-04T05:58:40;5.30;99.90
55083;DHT22;40978;52.850;6.506;2023-03-04T06:01:06;5.30;99.90
55083;DHT22;40978;52.850;6.506;2023-03-04T06:03:32;5.20;99.90
55083;DHT22;40978;52.850;6.506;2023-03-04T06:05:58;5.20;99.90
55083;DHT22;40978;52.850;6.506;2023-03-04T06:08:24;5.10;99.90
55083;DHT22;40978;52.850;6.506;2023-03-04T06:10:55;5.10;99.90
55083;DHT22;40978;52.850;6.506;2023-03-04T06:13:21;5.10;99.90
55083;DHT22;40978;52.850;6.506;2023-03-04T06:15:48;5.10;99.90
55083;DHT22;40978;52.850;6.506;2023-03-04T06:18:17;5.10;99.90
55083;DHT22;40978;52.850;6.506;2023-03-04T06:20:43;5.10;99.90
55083;DHT22;40978;52.850;6.506;2023-03-04T06:23:09;5.20;99.90
55083;DHT22;40978;52.850;6.506;2023-03-04T06:25:35;5.20;99.90
55083;DHT22;40978;52.850;6.506;2023-03-04T06:28:01;5.20;99.90
55083;DHT22;40978;52.850;6.506;2023-03-04T06:30:27;5.20;99.90
55083;DHT22;40978;52.850;6.506;2023-03-04T06:32:53;5.20;99.90
55083;DHT22;40978;52.850;6.506;2023-03-04T06:35:19;5.20;99.90
55083;DHT22;40978;52.850;6.506;2023-03-04T06:37:44;5.30;99.90
55083;DHT22;40978;52.850;6.506;2023-03-04T06:40:11;5.20;99.90
55083;DHT22;40978;52.850;6.506;2023-03-04T06:42:37;5.20;99.90
55083;DHT22;40978;52.850;6.506;2023-03-04T06:45:05;5.20;99.90
55083;DHT22;40978;52.850;6.506;2023-03-04T06:47:30;5.30;99.90
55083;DHT22;40978;52.850;6.506;2023-03-04T06:49:56;5.30;99.90
55083;DHT22;40978;52.850;6.506;2023-03-04T06:52:22;5.40;99.90
55083;DHT22;40978;52.850;6.506;2023-03-04T06:54:48;5.40;99.90
55083;DHT22;40978;52.850;6.506;2023-03-04T06:57:14;5.40;99.90
55083;DHT22;40978;52.850;6.506;2023-03-04T06:59:40;5.40;99.90
55083;DHT22;40978;52.850;6.506;2023-03-04T07:02:06;5.40;99.90
55083;DHT22;40978;52.850;6.506;2023-03-04T07:04:31;5.50;99.90
55083;DHT22;40978;52.850;6.506;2023-03-04T07:06:57;5.50;99.90
55083;DHT22;40978;52.850;6.506;2023-03-04T07:09:23;5.50;99.90
55083;DHT22;40978;52.850;6.506;2023-03-04T07:11:48;5.40;99.90
55083;DHT22;40978;52.850;6.506;2023-03-04T07:14:14;5.40;99.90
55083;DHT22;40978;52.850;6.506;2023-03-04T07:16:40;5.50;99.90
55083;DHT22;40978;52.850;6.506;2023-03-04T07:19:06;5.50;99.90
55083;DHT22;40978;52.850;6.506;2023-03-04T07:21:31;5.60;99.90
55083;DHT22;40978;52.850;6.506;2023-03-04T07:23:57;5.60;99.90
55083;DHT22;40978;52.850;6.506;2023-03-04T07:26:23;5.70;99.90
55083;DHT22;40978;52.850;6.506;2023-03-04T07:28:48;5.70;99.90
55083;DHT22;40978;52.850;6.506;2023-03-04T07:31:26;5.80;99.90
55083;DHT22;40978;52.850;6.506;2023-03-04T07:33:56;5.90;99.90
55083;DHT22;40978;52.850;6.506;2023-03-04T07:36:22;6.10;99.90
55083;DHT22;40978;52.850;6.506;2023-03-04T07:38:49;6.40;99.90
55083;DHT22;40978;52.850;6.506;2023-03-04T07:41:16;6.90;99.90
55083;DHT22;40978;52.850;6.506;2023-03-04T07:43:43;7.30;99.90
55083;DHT22;40978;52.850;6.506;2023-03-04T07:46:09;7.40;99.90
55083;DHT22;40978;52.850;6.506;2023-03-04T07:48:34;7.50;99.90
55083;DHT22;40978;52.850;6.506;2023-03-04T07:51:09;7.30;99.90
55083;DHT22;40978;52.850;6.506;2023-03-04T07:53:36;7.20;99.90
55083;DHT22;40978;52.850;6.506;2023-03-04T07:56:03;7.00;99.90
55083;DHT22;40978;52.850;6.506;2023-03-04T07:58:29;6.90;99.90
55083;DHT22;40978;52.850;6.506;2023-03-04T08:00:54;6.80;99.90
55083;DHT22;40978;52.850;6.506;2023-03-04T08:03:20;6.70;99.90
55083;DHT22;40978;52.850;6.506;2023-03-04T08:05:46;6.70;99.90
55083;DHT22;40978;52.850;6.506;2023-03-04T08:08:12;6.50;99.90
55083;DHT22;40978;52.850;6.506;2023-03-04T08:10:38;6.50;99.90
55083;DHT22;40978;52.850;6.506;2023-03-04T08:13:07;6.40;99.90
55083;DHT22;40978;52.850;6.506;2023-03-04T08:15:33;6.30;99.90
55083;DHT22;40978;52.850;6.506;2023-03-04T08:18:00;6.30;99.90
55083;DHT22;40978;52.850;6.506;2023-03-04T08:20:26;6.30;99.90
55083;DHT22;40978;52.850;6.506;2023-03-04T08:22:52;6.30;99.90
55083;DHT22;40978;52.850;6.506;2023-03-04T08:25:18;6.30;99.90
55083;DHT22;40978;52.850;6.506;2023-03-04T08:27:44;6.50;99.90
55083;DHT22;40978;52.850;6.506;2023-03-04T08:30:10;6.70;99.90
55083;DHT22;40978;52.850;6.506;2023-03-04T08:32:36;7.10;99.90
55083;DHT22;40978;52.850;6.506;2023-03-04T08:35:01;7.30;99.90
55083;DHT22;40978;52.850;6.506;2023-03-04T08:37:31;7.30;99.90
55083;DHT22;40978;52.850;6.506;2023-03-04T08:39:56;7.30;99.90
55083;DHT22;40978;52.850;6.506;2023-03-04T08:42:22;7.20;99.90
55083;DHT22;40978;52.850;6.506;2023-03-04T08:44:49;7.30;99.90
55083;DHT22;40978;52.850;6.506;2023-03-04T08:47:15;7.20;99.90
55083;DHT22;40978;52.850;6.506;2023-03-04T08:49:41;7.20;99.90
55083;DHT22;40978;52.850;6.506;2023-03-04T08:52:09;7.10;99.90
55083;DHT22;40978;52.850;6.506;2023-03-04T08:54:35;7.10;99.90
55083;DHT22;40978;52.850;6.506;2023-03-04T08:57:00;7.00;99.90
55083;DHT22;40978;52.850;6.506;2023-03-04T08:59:27;6.90;99.90
55083;DHT22;40978;52.850;6.506;2023-03-04T09:01:53;7.00;99.90
55083;DHT22;40978;52.850;6.506;2023-03-04T09:04:18;7.00;99.90
55083;DHT22;40978;52.850;6.506;2023-03-04T09:06:44;7.10;99.90
55083;DHT22;40978;52.850;6.506;2023-03-04T09:09:10;7.10;99.90
55083;DHT22;40978;52.850;6.506;2023-03-04T09:11:35;7.10;99.90
55083;DHT22;40978;52.850;6.506;2023-03-04T09:14:01;7.10;99.90
55083;DHT22;40978;52.850;6.506;2023-03-04T09:16:27;7.10;99.90
55083;DHT22;40978;52.850;6.506;2023-03-04T09:18:52;7.10;99.90
55083;DHT22;40978;52.850;6.506;2023-03-04T09:21:18;7.00;99.90
55083;DHT22;40978;52.850;6.506;2023-03-04T09:23:44;6.90;99.90
55083;DHT22;40978;52.850;6.506;2023-03-04T09:26:24;6.80;99.90
55083;DHT22;40978;52.850;6.506;2023-03-04T09:28:52;6.80;99.90
55083;DHT22;40978;52.850;6.506;2023-03-04T09:31:18;6.90;99.90
55083;DHT22;40978;52.850;6.506;2023-03-04T09:33:44;7.00;99.90
55083;DHT22;40978;52.850;6.506;2023-03-04T09:36:11;7.20;99.90
55083;DHT22;40978;52.850;6.506;2023-03-04T09:38:38;7.20;99.90
55083;DHT22;40978;52.850;6.506;2023-03-04T09:41:08;7.20;99.90
55083;DHT22;40978;52.850;6.506;2023-03-04T09:43:37;7.30;99.90
55083;DHT22;40978;52.850;6.506;2023-03-04T09:46:34;7.20;99.90
55083;DHT22;40978;52.850;6.506;2023-03-04T09:49:00;7.20;99.90
55083;DHT22;40978;52.850;6.506;2023-03-04T09:54:17;7.20;99.90
55083;DHT22;40978;52.850;6.506;2023-03-04T09:56:44;7.20;99.90
55083;DHT22;40978;52.850;6.506;2023-03-04T10:02:31;7.10;99.90
55083;DHT22;40978;52.850;6.506;2023-03-04T10:04:46;7.20;99.90
55083;DHT22;40978;52.850;6.506;2023-03-04T10:07:25;7.00;99.90
55083;DHT22;40978;52.850;6.506;2023-03-04T10:10:02;6.90;99.90
55083;DHT22;40978;52.850;6.506;2023-03-04T10:12:29;6.90;99.90
55083;DHT22;40978;52.850;6.506;2023-03-04T10:15:04;6.80;99.90
55083;DHT22;40978;52.850;6.506;2023-03-04T10:17:39;6.70;99.90
55083;DHT22;40978;52.850;6.506;2023-03-04T10:20:15;6.70;99.90
55083;DHT22;40978;52.850;6.506;2023-03-04T10:22:46;6.70;99.90
55083;DHT22;40978;52.850;6.506;2023-03-04T10:27:51;7.00;99.90
55083;DHT22;40978;52.850;6.506;2023-03-04T10:33:17;7.00;99.90
55083;DHT22;40978;52.850;6.506;2023-03-04T10:35:51;7.00;99.90
55083;DHT22;40978;52.850;6.506;2023-03-04T10:38:19;7.00;99.90
55083;DHT22;40978;52.850;6.506;2023-03-04T10:40:46;6.90;99.90
55083;DHT22;40978;52.850;6.506;2023-03-04T10:43:20;7.00;99.90
55083;DHT22;40978;52.850;6.506;2023-03-04T10:45:46;7.00;99.90
55083;DHT22;40978;52.850;6.506;2023-03-04T10:48:30;7.00;99.90
55083;DHT22;40978;52.850;6.506;2023-03-04T10:51:20;7.10;99.90
55083;DHT22;40978;52.850;6.506;2023-03-04T10:53:48;7.00;99.90
55083;DHT22;40978;52.850;6.506;2023-03-04T10:56:42;7.00;99.90
55083;DHT22;40978;52.850;6.506;2023-03-04T11:01:58;6.70;99.90
55083;DHT22;40978;52.850;6.506;2023-03-04T11:04:26;6.70;99.90
55083;DHT22;40978;52.850;6.506;2023-03-04T11:06:53;6.70;99.90
55083;DHT22;40978;52.850;6.506;2023-03-04T11:09:28;6.70;99.90
55083;DHT22;40978;52.850;6.506;2023-03-04T11:11:59;6.80;99.90
55083;DHT22;40978;52.850;6.506;2023-03-04T11:14:35;6.90;99.90
55083;DHT22;40978;52.850;6.506;2023-03-04T11:17:19;7.40;99.90
55083;DHT22;40978;52.850;6.506;2023-03-04T11:22:59;8.90;99.90
55083;DHT22;40978;52.850;6.506;2023-03-04T11:25:33;8.60;99.90
55083;DHT22;40978;52.850;6.506;2023-03-04T11:30:49;7.90;99.90
55083;DHT22;40978;52.850;6.506;2023-03-04T11:38:40;7.50;99.90
55083;DHT22;40978;52.850;6.506;2023-03-04T11:41:28;7.70;99.90
55083;DHT22;40978;52.850;6.506;2023-03-04T11:43:57;7.90;99.90
55083;DHT22;40978;52.850;6.506;2023-03-04T11:54:48;7.70;99.90
55083;DHT22;40978;52.850;6.506;2023-03-04T12:23:43;7.60;99.90
55083;DHT22;40978;52.850;6.506;2023-03-04T12:26:35;7.50;99.90
55083;DHT22;40978;52.850;6.506;2023-03-04T12:29:06;7.70;99.90
55083;DHT22;40978;52.850;6.506;2023-03-04T12:31:40;8.30;99.90
55083;DHT22;40978;52.850;6.506;2023-03-04T12:34:39;8.60;99.90
55083;DHT22;40978;52.850;6.506;2023-03-04T12:37:29;8.50;99.90
55083;DHT22;40978;52.850;6.506;2023-03-04T12:43:21;7.80;99.90
55083;DHT22;40978;52.850;6.506;2023-03-04T12:48:46;7.50;99.90
55083;DHT22;40978;52.850;6.506;2023-03-04T12:54:28;7.50;99.90
55083;DHT22;40978;52.850;6.506;2023-03-04T12:57:03;7.50;99.90
55083;DHT22;40978;52.850;6.506;2023-03-04T13:10:45;7.50;99.90
55083;DHT22;40978;52.850;6.506;2023-03-04T13:13:39;7.50;99.90
55083;DHT22;40978;52.850;6.506;2023-03-04T13:16:39;7.80;99.90
55083;DHT22;40978;52.850;6.506;2023-03-04T13:25:40;8.00;99.90
55083;DHT22;40978;52.850;6.506;2023-03-04T13:43:36;8.60;99.90
55083;DHT22;40978;52.850;6.506;2023-03-04T13:51:41;9.00;99.90
55083;DHT22;40978;52.850;6.506;2023-03-04T13:54:26;8.80;99.90
55083;DHT22;40978;52.850;6.506;2023-03-04T14:02:42;8.50;99.90
55083;DHT22;40978;52.850;6.506;2023-03-04T14:07:35;8.00;99.90
55083;DHT22;40978;52.850;6.506;2023-03-04T14:10:22;7.90;99.90
55083;DHT22;40978;52.850;6.506;2023-03-04T14:12:51;8.00;99.90
55083;DHT22;40978;52.850;6.506;2023-03-04T14:15:26;8.00;99.90
55083;DHT22;40978;52.850;6.506;2023-03-04T14:17:55;7.90;99.90
55083;DHT22;40978;52.850;6.506;2023-03-04T14:20:26;7.70;99.90
55083;DHT22;40978;52.850;6.506;2023-03-04T14:22:53;7.60;99.90
55083;DHT22;40978;52.850;6.506;2023-03-04T14:25:22;7.40;99.90
55083;DHT22;40978;52.850;6.506;2023-03-04T14:27:49;7.30;99.90
55083;DHT22;40978;52.850;6.506;2023-03-04T14:30:24;7.20;99.90
55083;DHT22;40978;52.850;6.506;2023-03-04T14:32:52;7.20;99.90
55083;DHT22;40978;52.850;6.506;2023-03-04T14:35:27;7.30;99.90
55083;DHT22;40978;52.850;6.506;2023-03-04T14:37:58;7.30;99.90
55083;DHT22;40978;52.850;6.506;2023-03-04T14:40:34;7.30;99.90
55083;DHT22;40978;52.850;6.506;2023-03-04T14:43:21;7.30;99.90
55083;DHT22;40978;52.850;6.506;2023-03-04T14:45:50;7.30;99.90
55083;DHT22;40978;52.850;6.506;2023-03-04T14:50:49;7.30;99.90
55083;DHT22;40978;52.850;6.506;2023-03-04T14:53:17;7.30;99.90
55083;DHT22;40978;52.850;6.506;2023-03-04T14:56:07;7.30;99.90
55083;DHT22;40978;52.850;6.506;2023-03-04T14:58:36;7.40;99.90
55083;DHT22;40978;52.850;6.506;2023-03-04T15:01:13;7.30;99.90
55083;DHT22;40978;52.850;6.506;2023-03-04T15:06:33;7.10;99.90
55083;DHT22;40978;52.850;6.506;2023-03-04T15:09:02;7.00;99.90
55083;DHT22;40978;52.850;6.506;2023-03-04T15:11:51;6.80;99.90
55083;DHT22;40978;52.850;6.506;2023-03-04T15:14:39;6.70;99.90
55083;DHT22;40978;52.850;6.506;2023-03-04T15:17:18;6.70;99.90
55083;DHT22;40978;52.850;6.506;2023-03-04T15:19:57;6.70;99.90
55083;DHT22;40978;52.850;6.506;2023-03-04T15:22:23;6.60;99.90
55083;DHT22;40978;52.850;6.506;2023-03-04T15:24:49;6.60;99.90
55083;DHT22;40978;52.850;6.506;2023-03-04T15:27:15;6.60;99.90
55083;DHT22;40978;52.850;6.506;2023-03-04T15:29:42;6.60;99.90
55083;DHT22;40978;52.850;6.506;2023-03-04T15:32:10;6.60;99.90
55083;DHT22;40978;52.850;6.506;2023-03-04T15:34:35;6.50;99.90
55083;DHT22;40978;52.850;6.506;2023-03-04T15:37:01;6.60;99.90
55083;DHT22;40978;52.850;6.506;2023-03-04T15:39:27;6.70;99.90
55083;DHT22;40978;52.850;6.506;2023-03-04T15:41:53;6.70;99.90
55083;DHT22;40978;52.850;6.506;2023-03-04T15:44:20;6.70;99.90
55083;DHT22;40978;52.850;6.506;2023-03-04T15:46:46;6.70;99.90
55083;DHT22;40978;52.850;6.506;2023-03-04T15:49:11;6.60;99.90
55083;DHT22;40978;52.850;6.506;2023-03-04T15:51:37;6.50;99.90
55083;DHT22;40978;52.850;6.506;2023-03-04T15:54:03;6.50;99.90
55083;DHT22;40978;52.850;6.506;2023-03-04T15:56:33;6.40;99.90
55083;DHT22;40978;52.850;6.506;2023-03-04T15:59:13;6.40;99.90
55083;DHT22;40978;52.850;6.506;2023-03-04T16:01:40;6.40;99.90
55083;DHT22;40978;52.850;6.506;2023-03-04T16:04:10;6.40;99.90
55083;DHT22;40978;52.850;6.506;2023-03-04T16:06:37;6.30;99.90
55083;DHT22;40978;52.850;6.506;2023-03-04T16:09:03;6.30;99.90
55083;DHT22;40978;52.850;6.506;2023-03-04T16:11:29;6.40;99.90
55083;DHT22;40978;52.850;6.506;2023-03-04T16:13:56;6.40;99.90
55083;DHT22;40978;52.850;6.506;2023-03-04T16:16:22;6.40;99.90
55083;DHT22;40978;52.850;6.506;2023-03-04T16:18:48;6.30;99.90
55083;DHT22;40978;52.850;6.506;2023-03-04T16:21:17;6.30;99.90
55083;DHT22;40978;52.850;6.506;2023-03-04T16:23:46;6.30;99.90
55083;DHT22;40978;52.850;6.506;2023-03-04T16:26:20;6.20;99.90
55083;DHT22;40978;52.850;6.506;2023-03-04T16:28:46;6.20;99.90
55083;DHT22;40978;52.850;6.506;2023-03-04T16:31:13;6.10;99.90
55083;DHT22;40978;52.850;6.506;2023-03-04T16:33:40;6.10;99.90
55083;DHT22;40978;52.850;6.506;2023-03-04T16:36:26;6.10;99.90
55083;DHT22;40978;52.850;6.506;2023-03-04T16:38:54;6.00;99.90
55083;DHT22;40978;52.850;6.506;2023-03-04T16:41:25;5.90;99.90
55083;DHT22;40978;52.850;6.506;2023-03-04T16:43:52;5.80;99.90
55083;DHT22;40978;52.850;6.506;2023-03-04T16:46:19;5.80;99.90
55083;DHT22;40978;52.850;6.506;2023-03-04T16:48:46;5.70;99.90
55083;DHT22;40978;52.850;6.506;2023-03-04T16:51:14;5.70;99.90
55083;DHT22;40978;52.850;6.506;2023-03-04T16:53:43;5.70;99.90
55083;DHT22;40978;52.850;6.506;2023-03-04T16:56:14;5.60;99.90
55083;DHT22;40978;52.850;6.506;2023-03-04T16:58:40;5.50;99.90
55083;DHT22;40978;52.850;6.506;2023-03-04T17:01:14;5.40;99.90
55083;DHT22;40978;52.850;6.506;2023-03-04T17:03:41;5.40;99.90
55083;DHT22;40978;52.850;6.506;2023-03-04T17:06:08;5.30;99.90
55083;DHT22;40978;52.850;6.506;2023-03-04T17:08:33;5.30;99.90
55083;DHT22;40978;52.850;6.506;2023-03-04T17:10:59;5.30;99.90
55083;DHT22;40978;52.850;6.506;2023-03-04T17:13:25;5.20;99.90
55083;DHT22;40978;52.850;6.506;2023-03-04T17:15:50;5.20;99.90
55083;DHT22;40978;52.850;6.506;2023-03-04T17:18:16;5.20;99.90
55083;DHT22;40978;52.850;6.506;2023-03-04T17:20:42;5.20;99.90
55083;DHT22;40978;52.850;6.506;2023-03-04T17:23:08;5.20;99.90
55083;DHT22;40978;52.850;6.506;2023-03-04T17:25:34;5.10;99.90
55083;DHT22;40978;52.850;6.506;2023-03-04T17:27:59;5.00;99.90
55083;DHT22;40978;52.850;6.506;2023-03-04T17:30:25;5.00;99.90
55083;DHT22;40978;52.850;6.506;2023-03-04T17:32:51;4.90;99.90
55083;DHT22;40978;52.850;6.506;2023-03-04T17:35:16;4.90;99.90
55083;DHT22;40978;52.850;6.506;2023-03-04T17:37:42;4.80;99.90
55083;DHT22;40978;52.850;6.506;2023-03-04T17:40:09;4.80;99.90
55083;DHT22;40978;52.850;6.506;2023-03-04T17:42:42;4.80;99.90
55083;DHT22;40978;52.850;6.506;2023-03-04T17:45:08;4.70;99.90
55083;DHT22;40978;52.850;6.506;2023-03-04T17:47:35;4.70;99.90
55083;DHT22;40978;52.850;6.506;2023-03-04T17:50:02;4.70;99.90
55083;DHT22;40978;52.850;6.506;2023-03-04T17:52:28;4.70;99.90
55083;DHT22;40978;52.850;6.506;2023-03-04T17:54:54;4.70;99.90
55083;DHT22;40978;52.850;6.506;2023-03-04T17:57:19;4.70;99.90
55083;DHT22;40978;52.850;6.506;2023-03-04T17:59:45;4.60;99.90